Time;durP1;ratioP1;P1;durP2;ratioP2;P2;SDS_P1;SDS_P2;PMS_P1;PMS_P2;Temp;Humidity;BMP_temperature;BMP_pressure;BME280_temperature;BME280_humidity;BME280_pressure;Samples;Min_cycle;Max_cycle;Signal;HPM_P1;HPM_P2
2023/07/25 00:01:26;;;;;;;1.55;1.45;;;;;;;;;;5000260;28;20197;-70
2023/07/25 00:03:53;;;;;;;1.30;1.30;;;;;;;;;;5000036;28;20205;-70
2023/07/25 00:06:20;;;;;;;1.40;1.30;;;;;;;;;;5000343;28;20235;-70
2023/07/25 00:08:48;;;;;;;1.95;1.52;;;;;;;;;;4998845;28;20213;-70
2023/07/25 00:11:15;;;;;;;1.50;1.40;;;;;;;;;;4997236;28;20211;-70
2023/07/25 00:13:43;;;;;;;2.22;1.48;;;;;;;;;;5003036;28;20212;-71
2023/07/25 00:16:11;;;;;;;1.30;1.20;;;;;;;;;;5001193;28;20198;-70
2023/07/25 00:18:38;;;;;;;1.50;1.40;;;;;;;;;;5001588;28;20216;-70
2023/07/25 00:21:05;;;;;;;1.50;1.40;;;;;;;;;;5000234;28;20219;-70
2023/07/25 00:23:32;;;;;;;1.45;1.35;;;;;;;;;;4999537;28;20216;-70
2023/07/25 00:26:00;;;;;;;3.00;1.40;;;;;;;;;;4995953;28;20225;-70
2023/07/25 00:28:27;;;;;;;1.63;1.50;;;;;;;;;;4999931;28;20301;-70
2023/07/25 00:30:54;;;;;;;1.52;1.42;;;;;;;;;;5002118;28;20217;-70
2023/07/25 00:33:22;;;;;;;2.30;1.60;;;;;;;;;;4997062;28;20201;-70
2023/07/25 00:35:53;;;;;;;1.58;1.48;;;;;;;;;;5006533;28;20201;-70
2023/07/25 00:38:20;;;;;;;1.70;1.60;;;;;;;;;;4999942;28;20213;-70
2023/07/25 00:40:47;;;;;;;1.52;1.42;;;;;;;;;;5003886;28;20218;-70
2023/07/25 00:43:15;;;;;;;1.48;1.38;;;;;;;;;;4999868;28;20272;-70
2023/07/25 00:45:42;;;;;;;1.83;1.45;;;;;;;;;;4998391;28;20312;-70
2023/07/25 00:48:09;;;;;;;1.60;1.50;;;;;;;;;;4999155;28;20201;-70
2023/07/25 00:50:37;;;;;;;1.65;1.50;;;;;;;;;;4999785;28;20205;-70
2023/07/25 00:53:06;;;;;;;1.38;1.38;;;;;;;;;;4999018;28;20212;-70
2023/07/25 00:55:34;;;;;;;2.15;1.50;;;;;;;;;;5001323;28;20204;-69
2023/07/25 00:58:02;;;;;;;1.40;1.30;;;;;;;;;;4995548;28;20213;-70
2023/07/25 01:00:29;;;;;;;1.60;1.50;;;;;;;;;;5001093;28;20201;-69
2023/07/25 01:02:56;;;;;;;1.75;1.65;;;;;;;;;;5001560;28;20204;-69
2023/07/25 01:05:23;;;;;;;2.03;1.70;;;;;;;;;;4996997;28;20219;-69
2023/07/25 01:07:52;;;;;;;1.77;1.40;;;;;;;;;;4998094;28;20236;-70
2023/07/25 01:10:19;;;;;;;2.38;1.58;;;;;;;;;;4999643;28;20205;-69
2023/07/25 01:12:46;;;;;;;1.52;1.42;;;;;;;;;;5002611;28;20212;-71
2023/07/25 01:15:14;;;;;;;1.80;1.70;;;;;;;;;;5002333;28;20201;-70
2023/07/25 01:17:41;;;;;;;1.75;1.65;;;;;;;;;;4994026;28;20265;-69
2023/07/25 01:20:10;;;;;;;3.25;1.30;;;;;;;;;;5001624;28;20203;-70
2023/07/25 01:22:38;;;;;;;1.60;1.50;;;;;;;;;;4999067;28;20216;-70
2023/07/25 01:25:08;;;;;;;1.73;1.63;;;;;;;;;;4999094;28;20201;-69
2023/07/25 01:27:36;;;;;;;1.50;1.40;;;;;;;;;;4999811;28;20232;-70
2023/07/25 01:30:03;;;;;;;1.70;1.60;;;;;;;;;;5006078;28;20201;-70
2023/07/25 01:32:30;;;;;;;1.50;1.40;;;;;;;;;;5000993;28;20205;-69
2023/07/25 01:34:58;;;;;;;1.60;1.50;;;;;;;;;;5008283;28;20216;-70
2023/07/25 01:37:25;;;;;;;1.48;1.38;;;;;;;;;;5000426;28;20197;-69
2023/07/25 01:39:52;;;;;;;1.63;1.50;;;;;;;;;;5001580;28;20204;-70
2023/07/25 01:42:20;;;;;;;1.50;1.40;;;;;;;;;;4997867;28;20201;-69
2023/07/25 01:44:48;;;;;;;1.50;1.40;;;;;;;;;;4998341;28;20213;-69
2023/07/25 01:47:15;;;;;;;2.00;1.80;;;;;;;;;;4996050;28;20238;-70
2023/07/25 01:49:42;;;;;;;1.45;1.40;;;;;;;;;;4999076;28;20209;-69
2023/07/25 01:52:09;;;;;;;1.77;1.45;;;;;;;;;;5003294;28;20212;-69
2023/07/25 01:54:36;;;;;;;1.50;1.40;;;;;;;;;;4995993;28;20224;-69
2023/07/25 01:57:03;;;;;;;1.65;1.33;;;;;;;;;;5000165;28;20197;-69
2023/07/25 01:59:32;;;;;;;1.50;1.40;;;;;;;;;;5001830;28;20201;-69
2023/07/25 02:01:59;;;;;;;1.42;1.33;;;;;;;;;;5002047;28;20212;-69
2023/07/25 02:04:26;;;;;;;1.60;1.50;;;;;;;;;;5002214;28;20221;-69
2023/07/25 02:06:53;;;;;;;1.67;1.58;;;;;;;;;;5000888;28;20229;-69
2023/07/25 02:09:20;;;;;;;1.45;1.35;;;;;;;;;;5002345;28;20205;-69
2023/07/25 02:11:48;;;;;;;1.35;1.35;;;;;;;;;;5001641;28;20213;-69
2023/07/25 02:14:15;;;;;;;1.40;1.30;;;;;;;;;;5001351;28;20201;-69
2023/07/25 02:16:43;;;;;;;1.60;1.50;;;;;;;;;;5001902;28;20212;-70
2023/07/25 02:19:10;;;;;;;1.60;1.50;;;;;;;;;;5000945;28;20202;-70
2023/07/25 02:21:37;;;;;;;1.40;1.30;;;;;;;;;;5000531;28;20228;-70
2023/07/25 02:24:05;;;;;;;1.63;1.50;;;;;;;;;;5002265;28;20201;-70
2023/07/25 02:26:32;;;;;;;1.95;1.50;;;;;;;;;;5002134;28;20228;-70
2023/07/25 02:28:59;;;;;;;1.33;1.23;;;;;;;;;;5003755;28;20201;-69
2023/07/25 02:31:26;;;;;;;1.98;1.42;;;;;;;;;;5004667;28;20251;-70
2023/07/25 02:33:55;;;;;;;1.52;1.42;;;;;;;;;;5000040;28;20208;-69
2023/07/25 02:36:22;;;;;;;1.48;1.38;;;;;;;;;;5002180;28;20201;-70
2023/07/25 02:38:49;;;;;;;1.42;1.33;;;;;;;;;;5004026;28;20201;-70
2023/07/25 02:41:17;;;;;;;1.75;1.65;;;;;;;;;;4999735;28;20227;-69
2023/07/25 02:43:44;;;;;;;1.85;1.40;;;;;;;;;;5000524;28;20212;-69
2023/07/25 02:46:11;;;;;;;1.60;1.50;;;;;;;;;;5002017;28;20240;-70
2023/07/25 02:48:38;;;;;;;1.52;1.42;;;;;;;;;;5004678;28;20212;-70
2023/07/25 02:51:07;;;;;;;2.67;1.40;;;;;;;;;;5001045;28;20212;-69
2023/07/25 02:53:34;;;;;;;1.60;1.50;;;;;;;;;;4998464;28;20225;-70
2023/07/25 02:56:01;;;;;;;1.50;1.40;;;;;;;;;;5002789;28;20217;-70
2023/07/25 02:58:28;;;;;;;1.48;1.40;;;;;;;;;;4999959;28;20201;-70
2023/07/25 03:00:55;;;;;;;4.15;1.48;;;;;;;;;;5001774;28;20205;-70
2023/07/25 03:03:22;;;;;;;1.67;1.58;;;;;;;;;;5002240;28;20205;-70
2023/07/25 03:05:50;;;;;;;1.42;1.33;;;;;;;;;;5003140;28;20247;-69
2023/07/25 03:08:18;;;;;;;1.55;1.45;;;;;;;;;;5001965;28;20232;-69
2023/07/25 03:10:45;;;;;;;1.48;1.38;;;;;;;;;;5006069;28;20259;-70
2023/07/25 03:13:13;;;;;;;2.03;1.40;;;;;;;;;;4999497;28;20208;-70
2023/07/25 03:15:40;;;;;;;1.40;1.40;;;;;;;;;;5000234;28;20209;-69
2023/07/25 03:18:07;;;;;;;2.03;1.50;;;;;;;;;;4996500;28;20200;-69
2023/07/25 03:20:34;;;;;;;1.80;1.70;;;;;;;;;;5004962;28;20300;-70
2023/07/25 03:23:02;;;;;;;1.70;1.60;;;;;;;;;;5003256;28;20205;-69
2023/07/25 03:25:30;;;;;;;1.58;1.48;;;;;;;;;;4998751;28;20216;-70
2023/07/25 03:27:57;;;;;;;1.60;1.50;;;;;;;;;;4997187;28;20221;-70
2023/07/25 03:30:25;;;;;;;1.70;1.60;;;;;;;;;;5003492;28;20224;-70
2023/07/25 03:32:53;;;;;;;1.65;1.55;;;;;;;;;;5002479;28;20235;-71
2023/07/25 03:35:20;;;;;;;1.73;1.60;;;;;;;;;;4999150;28;20205;-71
2023/07/25 03:37:47;;;;;;;2.17;1.40;;;;;;;;;;5008352;28;20201;-70
2023/07/25 03:40:14;;;;;;;1.60;1.50;;;;;;;;;;5002731;28;20209;-70
2023/07/25 03:42:43;;;;;;;3.30;1.70;;;;;;;;;;5002926;28;20215;-70
2023/07/25 03:45:10;;;;;;;1.60;1.50;;;;;;;;;;5001020;28;20216;-71
2023/07/25 03:47:37;;;;;;;1.80;1.70;;;;;;;;;;5002720;28;20232;-70
2023/07/25 03:50:05;;;;;;;1.75;1.60;;;;;;;;;;5004074;28;20212;-72
2023/07/25 03:52:32;;;;;;;2.10;1.90;;;;;;;;;;5002007;28;20232;-71
2023/07/25 03:54:59;;;;;;;1.80;1.70;;;;;;;;;;5000920;28;20208;-71
2023/07/25 03:57:27;;;;;;;2.08;1.88;;;;;;;;;;5005903;28;20197;-71
2023/07/25 03:59:55;;;;;;;1.85;1.55;;;;;;;;;;4999680;28;20210;-72
2023/07/25 04:02:22;;;;;;;1.85;1.75;;;;;;;;;;4999044;28;20224;-73
2023/07/25 04:04:49;;;;;;;2.40;2.20;;;;;;;;;;4998329;28;20209;-72
2023/07/25 04:07:17;;;;;;;2.53;2.33;;;;;;;;;;4999960;28;20241;-73
2023/07/25 04:09:44;;;;;;;2.20;2.00;;;;;;;;;;5003207;28;20213;-73
2023/07/25 04:12:11;;;;;;;2.95;2.35;;;;;;;;;;5000880;28;20210;-73
2023/07/25 04:14:38;;;;;;;2.30;2.10;;;;;;;;;;5003577;28;20205;-72
2023/07/25 04:17:07;;;;;;;3.08;2.30;;;;;;;;;;4998538;28;20201;-72
2023/07/25 04:19:34;;;;;;;2.80;2.25;;;;;;;;;;4998714;28;20228;-72
2023/07/25 04:22:01;;;;;;;2.42;2.22;;;;;;;;;;5000761;28;20205;-72
2023/07/25 04:24:28;;;;;;;2.70;2.50;;;;;;;;;;4997216;28;20212;-70
2023/07/25 04:26:55;;;;;;;2.60;2.22;;;;;;;;;;4998968;28;20197;-71
2023/07/25 04:29:23;;;;;;;3.20;2.22;;;;;;;;;;4998525;28;20205;-70
2023/07/25 04:31:50;;;;;;;3.47;2.60;;;;;;;;;;5003560;28;20202;-70
2023/07/25 04:34:18;;;;;;;3.83;2.40;;;;;;;;;;5001729;28;20220;-70
2023/07/25 04:36:45;;;;;;;3.47;2.75;;;;;;;;;;5001325;28;20208;-69
2023/07/25 04:39:13;;;;;;;5.82;3.08;;;;;;;;;;5001538;28;20228;-69
2023/07/25 04:41:40;;;;;;;3.88;2.45;;;;;;;;;;4999635;28;20205;-68
2023/07/25 04:44:07;;;;;;;3.50;2.63;;;;;;;;;;5007170;28;20200;-69
2023/07/25 04:46:35;;;;;;;2.75;2.28;;;;;;;;;;4997587;28;20248;-68
2023/07/25 04:49:02;;;;;;;3.65;2.60;;;;;;;;;;5010010;28;20240;-67
2023/07/25 04:51:31;;;;;;;2.50;2.22;;;;;;;;;;4996033;28;20212;-68
2023/07/25 04:53:58;;;;;;;2.78;2.30;;;;;;;;;;4993775;28;20228;-69
2023/07/25 04:56:25;;;;;;;2.22;2.00;;;;;;;;;;5003261;28;20208;-70
2023/07/25 04:58:52;;;;;;;5.00;2.65;;;;;;;;;;5005132;28;20203;-70
2023/07/25 05:01:19;;;;;;;2.72;2.50;;;;;;;;;;4997606;28;20220;-70
2023/07/25 05:03:46;;;;;;;3.13;2.83;;;;;;;;;;5000407;28;20212;-71
2023/07/25 05:06:14;;;;;;;3.42;3.10;;;;;;;;;;5004091;28;20202;-70
2023/07/25 05:08:42;;;;;;;4.60;3.05;;;;;;;;;;5003818;28;20288;-70
2023/07/25 05:11:11;;;;;;;3.92;3.50;;;;;;;;;;5005790;28;20216;-68
2023/07/25 05:13:38;;;;;;;4.00;2.80;;;;;;;;;;5002339;28;20208;-68
2023/07/25 05:16:06;;;;;;;4.00;3.50;;;;;;;;;;4998097;28;20211;-68
2023/07/25 05:18:33;;;;;;;3.47;3.17;;;;;;;;;;4993409;28;20216;-67
2023/07/25 05:21:01;;;;;;;3.45;2.97;;;;;;;;;;4997337;28;20212;-69
2023/07/25 05:23:28;;;;;;;3.22;2.97;;;;;;;;;;4997229;28;20349;-67
2023/07/25 05:25:57;;;;;;;3.25;2.80;;;;;;;;;;4997514;28;20271;-67
2023/07/25 05:28:24;;;;;;;3.30;2.88;;;;;;;;;;4993264;28;20223;-69
2023/07/25 05:30:52;;;;;;;5.05;3.65;;;;;;;;;;5003050;28;20287;-68
2023/07/25 05:33:19;;;;;;;3.08;2.88;;;;;;;;;;5005179;28;20208;-68
2023/07/25 05:35:47;;;;;;;3.28;2.97;;;;;;;;;;5002139;28;20205;-67
2023/07/25 05:38:14;;;;;;;3.33;3.03;;;;;;;;;;5008246;28;20201;-67
2023/07/25 05:40:41;;;;;;;3.30;3.00;;;;;;;;;;5005375;28;20200;-67
2023/07/25 05:43:11;;;;;;;3.83;3.53;;;;;;;;;;5003006;28;20228;-67
2023/07/25 05:45:39;;;;;;;5.28;3.80;;;;;;;;;;5004866;28;20247;-67
2023/07/25 05:48:06;;;;;;;4.72;4.20;;;;;;;;;;5008458;28;20278;-67
2023/07/25 05:50:34;;;;;;;4.25;3.90;;;;;;;;;;5009256;28;20240;-67
2023/07/25 05:53:01;;;;;;;4.47;4.07;;;;;;;;;;5007085;28;20213;-67
2023/07/25 05:55:28;;;;;;;5.65;4.18;;;;;;;;;;5005914;28;20201;-67
2023/07/25 05:57:56;;;;;;;4.00;3.70;;;;;;;;;;5008567;28;20359;-67
2023/07/25 06:00:25;;;;;;;4.45;4.07;;;;;;;;;;5012348;28;20288;-68
2023/07/25 06:02:54;;;;;;;3.67;3.38;;;;;;;;;;5012578;28;20205;-67
2023/07/25 06:05:21;;;;;;;4.30;3.90;;;;;;;;;;5007578;28;20287;-68
2023/07/25 06:07:48;;;;;;;4.47;4.07;;;;;;;;;;5005473;28;20333;-68
2023/07/25 06:10:16;;;;;;;3.97;3.67;;;;;;;;;;5004687;28;20206;-68
2023/07/25 06:12:44;;;;;;;4.50;4.10;;;;;;;;;;5010858;28;20197;-67
2023/07/25 06:15:11;;;;;;;3.67;3.38;;;;;;;;;;5008117;28;20335;-67
2023/07/25 06:17:40;;;;;;;5.95;4.10;;;;;;;;;;5003465;28;20201;-68
2023/07/25 06:20:08;;;;;;;3.42;3.22;;;;;;;;;;4997593;28;20190;-68
2023/07/25 06:22:37;;;;;;;3.83;2.72;;;;;;;;;;5008519;28;20208;-67
2023/07/25 06:25:05;;;;;;;4.47;3.30;;;;;;;;;;5001899;28;20296;-68
2023/07/25 06:27:32;;;;;;;4.97;3.60;;;;;;;;;;5004505;28;20209;-68
2023/07/25 06:29:59;;;;;;;4.07;3.30;;;;;;;;;;4999555;28;20201;-68
2023/07/25 06:32:26;;;;;;;3.65;3.35;;;;;;;;;;4997254;28;20205;-68
2023/07/25 06:34:55;;;;;;;3.50;3.20;;;;;;;;;;5009321;28;20209;-68
2023/07/25 06:37:23;;;;;;;3.65;3.35;;;;;;;;;;4999007;28;20224;-69
2023/07/25 06:39:52;;;;;;;4.80;3.40;;;;;;;;;;4993076;28;20240;-68
2023/07/25 06:42:19;;;;;;;3.65;3.22;;;;;;;;;;5007333;28;20347;-69
2023/07/25 06:44:48;;;;;;;3.65;3.35;;;;;;;;;;5004534;28;20204;-68
2023/07/25 06:47:15;;;;;;;3.67;3.38;;;;;;;;;;5004070;28;20241;-68
2023/07/25 06:49:43;;;;;;;4.28;2.97;;;;;;;;;;4997086;28;20312;-68
2023/07/25 06:52:11;;;;;;;4.15;3.75;;;;;;;;;;5006404;28;20212;-67
2023/07/25 06:54:39;;;;;;;3.65;3.35;;;;;;;;;;5003384;28;20208;-67
2023/07/25 06:57:06;;;;;;;3.95;3.65;;;;;;;;;;5000793;28;20233;-67
2023/07/25 06:59:34;;;;;;;3.30;3.10;;;;;;;;;;5002298;28;20209;-67
2023/07/25 07:02:01;;;;;;;3.95;3.35;;;;;;;;;;5000971;28;20264;-68
2023/07/25 07:04:31;;;;;;;4.07;3.00;;;;;;;;;;5004763;28;20201;-67
2023/07/25 07:06:58;;;;;;;2.72;2.53;;;;;;;;;;4999358;28;20280;-67
2023/07/25 07:09:27;;;;;;;3.00;2.53;;;;;;;;;;5000638;28;20229;-67
2023/07/25 07:11:54;;;;;;;2.95;2.75;;;;;;;;;;5002781;28;20225;-68
2023/07/25 07:14:22;;;;;;;3.78;3.45;;;;;;;;;;5003872;28;20201;-67
2023/07/25 07:16:50;;;;;;;3.50;3.20;;;;;;;;;;5002172;28;20220;-68
2023/07/25 07:19:17;;;;;;;3.08;2.88;;;;;;;;;;5002636;28;20198;-67
2023/07/25 07:21:44;;;;;;;2.95;2.70;;;;;;;;;;5007526;28;20208;-68
2023/07/25 07:24:11;;;;;;;2.30;2.20;;;;;;;;;;5001934;28;20217;-67
2023/07/25 07:26:40;;;;;;;3.00;2.80;;;;;;;;;;4998583;28;20272;-67
2023/07/25 07:29:07;;;;;;;3.00;2.80;;;;;;;;;;4993895;28;20314;-67
2023/07/25 07:31:35;;;;;;;3.72;3.42;;;;;;;;;;4995584;28;20205;-68
2023/07/25 07:34:13;;;;;;;3.60;3.30;;;;;;;;;;5000864;28;20204;-67
2023/07/25 07:36:40;;;;;;;4.20;3.80;;;;;;;;;;4999914;28;20209;-68
2023/07/25 07:39:08;;;;;;;4.00;3.70;;;;;;;;;;4998024;28;20205;-67
2023/07/25 07:41:36;;;;;;;3.47;3.25;;;;;;;;;;5003231;28;20209;-68
2023/07/25 07:44:05;;;;;;;4.45;4.10;;;;;;;;;;4988103;28;20212;-66
2023/07/25 07:46:32;;;;;;;4.03;3.70;;;;;;;;;;5006924;28;20247;-67
2023/07/25 07:49:00;;;;;;;3.72;3.50;;;;;;;;;;5001811;28;20227;-66
2023/07/25 07:51:28;;;;;;;4.20;3.80;;;;;;;;;;5001678;28;20201;-66
2023/07/25 07:53:55;;;;;;;4.63;4.22;;;;;;;;;;5002353;28;20228;-66
2023/07/25 07:56:22;;;;;;;4.72;4.25;;;;;;;;;;5002842;28;20202;-66
2023/07/25 07:58:50;;;;;;;5.32;4.90;;;;;;;;;;5000814;28;20275;-66
2023/07/25 08:01:21;;;;;;;4.95;4.57;;;;;;;;;;5011457;28;20215;-66
2023/07/25 08:03:48;;;;;;;6.20;5.63;;;;;;;;;;5002152;28;20216;-66
2023/07/25 08:06:17;;;;;;;6.15;5.55;;;;;;;;;;5007223;28;20197;-66
2023/07/25 08:08:45;;;;;;;6.60;6.00;;;;;;;;;;5003772;28;20236;-66
2023/07/25 08:11:13;;;;;;;6.70;6.10;;;;;;;;;;5002922;28;20225;-65
2023/07/25 08:13:40;;;;;;;7.00;6.40;;;;;;;;;;4997805;28;20251;-66
2023/07/25 08:16:08;;;;;;;7.30;6.70;;;;;;;;;;5003589;28;20232;-65
2023/07/25 08:18:37;;;;;;;6.72;6.22;;;;;;;;;;5001280;28;20209;-65
2023/07/25 08:21:04;;;;;;;7.47;6.88;;;;;;;;;;5005530;28;20204;-65
2023/07/25 08:23:31;;;;;;;7.50;6.68;;;;;;;;;;5010771;28;20212;-65
2023/07/25 08:25:59;;;;;;;7.13;6.53;;;;;;;;;;5001320;28;20201;-65
2023/07/25 08:28:26;;;;;;;7.65;7.03;;;;;;;;;;5004597;28;20229;-65
2023/07/25 08:31:00;;;;;;;7.70;7.10;;;;;;;;;;5004557;28;20217;-65
2023/07/25 08:33:31;;;;;;;7.90;7.20;;;;;;;;;;4999138;28;20206;-65
2023/07/25 08:36:00;;;;;;;9.50;8.15;;;;;;;;;;5003468;28;20229;-66
2023/07/25 08:38:27;;;;;;;8.45;7.70;;;;;;;;;;5002623;28;20201;-66
2023/07/25 08:40:56;;;;;;;8.20;7.40;;;;;;;;;;5000038;28;20204;-67
2023/07/25 08:43:26;;;;;;;8.48;7.78;;;;;;;;;;5004928;28;20205;-66
2023/07/25 08:45:54;;;;;;;8.57;7.80;;;;;;;;;;5008845;28;20230;-66
2023/07/25 08:48:22;;;;;;;8.27;7.57;;;;;;;;;;5003837;28;20213;-66
2023/07/25 08:50:53;;;;;;;8.20;7.50;;;;;;;;;;5002125;28;20205;-66
2023/07/25 08:53:23;;;;;;;7.82;7.22;;;;;;;;;;4995223;28;20269;-67
2023/07/25 08:55:52;;;;;;;8.18;7.55;;;;;;;;;;4997153;28;20212;-67
2023/07/25 08:58:19;;;;;;;7.53;6.82;;;;;;;;;;5007900;28;20212;-67
2023/07/25 09:00:47;;;;;;;7.43;6.88;;;;;;;;;;5000127;28;20209;-67
2023/07/25 09:03:15;;;;;;;7.85;7.07;;;;;;;;;;4999076;28;20205;-67
2023/07/25 09:05:43;;;;;;;7.80;7.20;;;;;;;;;;5000510;28;20219;-67
2023/07/25 09:08:10;;;;;;;7.82;7.13;;;;;;;;;;5002518;28;20204;-67
2023/07/25 09:10:39;;;;;;;7.80;7.20;;;;;;;;;;5007490;28;20232;-67
2023/07/25 09:13:07;;;;;;;7.85;7.18;;;;;;;;;;5003552;28;20209;-68
2023/07/25 09:15:34;;;;;;;7.53;6.82;;;;;;;;;;5000770;28;20229;-67
2023/07/25 09:18:01;;;;;;;7.22;6.63;;;;;;;;;;5009735;28;20211;-68
2023/07/25 09:20:29;;;;;;;7.65;6.95;;;;;;;;;;5007497;28;20255;-68
2023/07/25 09:22:56;;;;;;;7.70;7.10;;;;;;;;;;5005098;28;20205;-68
2023/07/25 09:25:24;;;;;;;7.25;6.75;;;;;;;;;;5004223;28;20208;-68
2023/07/25 09:27:55;;;;;;;7.43;6.82;;;;;;;;;;5005797;28;20260;-68
2023/07/25 09:30:27;;;;;;;8.43;7.60;;;;;;;;;;5003792;28;20232;-68
2023/07/25 09:32:54;;;;;;;7.47;6.88;;;;;;;;;;5004826;28;20217;-69
2023/07/25 09:35:24;;;;;;;7.05;6.45;;;;;;;;;;5007500;28;20212;-68
2023/07/25 09:37:57;;;;;;;6.00;5.57;;;;;;;;;;5003533;28;20260;-68
2023/07/25 09:40:24;;;;;;;7.25;6.72;;;;;;;;;;5000229;28;20213;-68
2023/07/25 09:42:53;;;;;;;7.40;6.90;;;;;;;;;;5007293;28;20448;-69
2023/07/25 09:45:20;;;;;;;6.43;5.93;;;;;;;;;;5004683;28;20289;-69
2023/07/25 09:47:52;;;;;;;6.70;6.20;;;;;;;;;;5006805;28;20207;-69
2023/07/25 09:50:20;;;;;;;7.32;6.72;;;;;;;;;;5004751;28;20216;-69
2023/07/25 09:52:47;;;;;;;7.13;6.55;;;;;;;;;;5005593;28;20227;-69
2023/07/25 09:55:14;;;;;;;7.15;6.65;;;;;;;;;;5009603;28;20200;-69
2023/07/25 09:57:42;;;;;;;7.57;6.97;;;;;;;;;;5005570;28;20201;-69
2023/07/25 10:00:14;;;;;;;7.30;6.55;;;;;;;;;;5008491;28;20204;-69
2023/07/25 10:02:42;;;;;;;7.30;6.70;;;;;;;;;;5003216;28;20216;-69
2023/07/25 10:05:10;;;;;;;6.93;6.40;;;;;;;;;;5001640;28;20302;-69
2023/07/25 10:07:38;;;;;;;6.75;6.25;;;;;;;;;;5004921;28;20217;-69
2023/07/25 10:10:06;;;;;;;7.40;6.80;;;;;;;;;;4997569;28;20229;-69
2023/07/25 10:12:33;;;;;;;8.48;7.30;;;;;;;;;;5001471;28;20209;-69
2023/07/25 10:15:01;;;;;;;7.63;7.03;;;;;;;;;;5001934;28;20282;-69
2023/07/25 10:17:30;;;;;;;7.35;6.75;;;;;;;;;;4998212;28;20206;-69
2023/07/25 10:19:59;;;;;;;6.43;5.93;;;;;;;;;;5004296;28;20214;-69
2023/07/25 10:22:37;;;;;;;8.95;7.05;;;;;;;;;;5010400;28;20248;-69
2023/07/25 10:25:09;;;;;;;7.28;6.68;;;;;;;;;;5004401;28;20213;-68
2023/07/25 10:27:37;;;;;;;7.18;6.47;;;;;;;;;;4998882;28;20279;-69
2023/07/25 10:30:21;;;;;;;8.05;7.40;;;;;;;;;;5003116;28;20243;-68
2023/07/25 10:32:52;;;;;;;8.43;7.72;;;;;;;;;;4994491;28;20304;-68
2023/07/25 10:35:39;;;;;;;8.55;7.82;;;;;;;;;;4997546;28;20201;-69
2023/07/25 10:38:09;;;;;;;8.07;7.35;;;;;;;;;;5003917;28;20207;-69
2023/07/25 10:40:51;;;;;;;7.80;7.10;;;;;;;;;;4995081;28;20228;-69
2023/07/25 10:43:19;;;;;;;8.68;7.80;;;;;;;;;;4996705;28;20209;-69
2023/07/25 10:45:50;;;;;;;7.65;7.05;;;;;;;;;;4998067;28;20233;-69
2023/07/25 10:48:34;;;;;;;8.75;7.90;;;;;;;;;;5005006;28;20205;-69
2023/07/25 10:51:02;;;;;;;8.80;8.10;;;;;;;;;;5003311;28;20229;-69
2023/07/25 10:53:29;;;;;;;7.47;6.78;;;;;;;;;;5004345;28;20208;-69
2023/07/25 10:56:10;;;;;;;8.60;7.82;;;;;;;;;;5002396;28;20208;-69
2023/07/25 10:58:38;;;;;;;8.70;8.00;;;;;;;;;;5001013;28;20211;-69
2023/07/25 11:01:06;;;;;;;8.40;7.70;;;;;;;;;;5003036;28;20241;-69
2023/07/25 11:03:36;;;;;;;7.15;6.65;;;;;;;;;;5003650;28;20263;-69
2023/07/25 11:06:21;;;;;;;7.57;7.03;;;;;;;;;;5005251;28;20206;-69
2023/07/25 11:08:49;;;;;;;6.78;6.28;;;;;;;;;;4990378;28;20296;-69
2023/07/25 11:11:18;;;;;;;7.70;7.10;;;;;;;;;;5006964;28;20225;-70
2023/07/25 11:13:45;;;;;;;7.30;6.70;;;;;;;;;;5007159;28;20220;-69
2023/07/25 11:16:14;;;;;;;7.85;7.25;;;;;;;;;;5005490;28;20208;-69
2023/07/25 11:18:51;;;;;;;7.57;6.97;;;;;;;;;;5004774;28;20236;-69
2023/07/25 11:21:18;;;;;;;7.32;6.72;;;;;;;;;;4998256;28;20197;-71
2023/07/25 11:23:45;;;;;;;7.47;6.90;;;;;;;;;;4997841;28;20204;-69
2023/07/25 11:26:13;;;;;;;8.10;7.40;;;;;;;;;;4994147;28;20277;-69
2023/07/25 11:28:41;;;;;;;7.57;7.03;;;;;;;;;;4996797;28;20208;-70
2023/07/25 11:31:08;;;;;;;7.50;6.90;;;;;;;;;;5002367;28;20234;-69
2023/07/25 11:33:38;;;;;;;7.93;7.22;;;;;;;;;;5002713;28;20213;-69
2023/07/25 11:36:07;;;;;;;7.70;7.00;;;;;;;;;;5004569;28;20213;-69
2023/07/25 11:38:36;;;;;;;7.65;6.90;;;;;;;;;;5005960;28;20209;-69
2023/07/25 11:41:03;;;;;;;8.75;7.93;;;;;;;;;;5005890;28;20201;-69
2023/07/25 11:43:30;;;;;;;8.15;7.40;;;;;;;;;;4999658;28;20212;-69
2023/07/25 11:45:58;;;;;;;8.05;7.35;;;;;;;;;;4999553;28;20240;-69
2023/07/25 11:48:25;;;;;;;8.57;7.78;;;;;;;;;;4996333;28;20216;-70
2023/07/25 11:50:53;;;;;;;8.15;7.38;;;;;;;;;;5005063;28;20225;-69
2023/07/25 11:53:22;;;;;;;7.38;6.78;;;;;;;;;;5002643;28;20220;-69
2023/07/25 11:55:51;;;;;;;6.63;6.03;;;;;;;;;;5001019;28;20209;-69
2023/07/25 11:58:19;;;;;;;8.50;7.70;;;;;;;;;;4999033;28;20211;-69
2023/07/25 12:00:48;;;;;;;9.15;8.45;;;;;;;;;;5003625;28;20219;-69
2023/07/25 12:03:18;;;;;;;8.93;8.00;;;;;;;;;;5002871;28;20208;-69
2023/07/25 12:05:51;;;;;;;7.80;7.10;;;;;;;;;;5004170;28;20204;-69
2023/07/25 12:08:32;;;;;;;8.13;7.32;;;;;;;;;;4997622;28;20209;-69
2023/07/25 12:11:01;;;;;;;8.32;7.43;;;;;;;;;;4994335;28;20285;-69
2023/07/25 12:13:28;;;;;;;8.80;8.02;;;;;;;;;;5002665;28;20209;-69
2023/07/25 12:15:57;;;;;;;9.70;8.50;;;;;;;;;;5001967;28;20214;-69
2023/07/25 12:18:27;;;;;;;8.30;7.50;;;;;;;;;;5001356;28;20214;-68
2023/07/25 12:20:55;;;;;;;7.88;7.00;;;;;;;;;;4996959;28;20197;-69
2023/07/25 12:23:29;;;;;;;7.57;6.85;;;;;;;;;;5005372;28;20197;-69
2023/07/25 12:25:57;;;;;;;6.07;5.47;;;;;;;;;;5009648;28;20212;-69
2023/07/25 12:28:25;;;;;;;7.72;6.45;;;;;;;;;;5004066;28;20212;-69
2023/07/25 12:30:52;;;;;;;7.85;6.70;;;;;;;;;;5002988;28;20225;-69
2023/07/25 12:33:20;;;;;;;7.35;6.53;;;;;;;;;;5004534;28;20221;-68
2023/07/25 12:35:47;;;;;;;7.07;6.38;;;;;;;;;;5006027;28;20213;-69
2023/07/25 12:38:14;;;;;;;7.53;6.25;;;;;;;;;;4996912;28;20197;-68
2023/07/25 12:40:41;;;;;;;8.68;6.35;;;;;;;;;;5000436;28;20213;-69
2023/07/25 12:43:10;;;;;;;6.35;5.85;;;;;;;;;;4997131;28;20219;-69
2023/07/25 12:45:37;;;;;;;6.38;5.88;;;;;;;;;;5000748;28;20256;-69
2023/07/25 12:48:04;;;;;;;6.35;5.13;;;;;;;;;;4998736;28;20197;-69
2023/07/25 12:50:31;;;;;;;8.95;5.10;;;;;;;;;;4999695;28;20221;-68
2023/07/25 12:52:58;;;;;;;6.07;5.47;;;;;;;;;;4993868;28;20202;-68
2023/07/25 12:55:26;;;;;;;5.65;5.15;;;;;;;;;;5000786;28;20295;-68
2023/07/25 12:57:53;;;;;;;15.05;13.68;;;;;;;;;;4990707;28;20206;-69
2023/07/25 13:00:21;;;;;;;8.82;7.97;;;;;;;;;;4990409;28;20304;-69
2023/07/25 13:02:48;;;;;;;8.50;7.70;;;;;;;;;;5008108;28;20213;-68
2023/07/25 13:05:16;;;;;;;10.27;9.23;;;;;;;;;;5007088;28;20268;-68
2023/07/25 13:07:44;;;;;;;7.75;6.93;;;;;;;;;;4995168;28;20202;-68
2023/07/25 13:10:11;;;;;;;6.90;5.80;;;;;;;;;;5000208;28;20228;-68
2023/07/25 13:12:39;;;;;;;6.90;6.20;;;;;;;;;;5004771;28;20205;-68
2023/07/25 13:15:07;;;;;;;6.78;6.07;;;;;;;;;;5000447;28;20205;-68
2023/07/25 13:17:35;;;;;;;5.38;4.85;;;;;;;;;;5001131;28;20223;-67
2023/07/25 13:20:03;;;;;;;6.25;5.60;;;;;;;;;;5005683;28;20198;-68
2023/07/25 13:22:31;;;;;;;7.50;6.40;;;;;;;;;;4996357;28;20201;-68
2023/07/25 13:24:58;;;;;;;7.47;6.10;;;;;;;;;;5002874;28;20241;-67
2023/07/25 13:27:26;;;;;;;5.65;5.07;;;;;;;;;;5006281;28;20299;-68
2023/07/25 13:29:53;;;;;;;7.38;6.30;;;;;;;;;;5001426;28;20213;-68
2023/07/25 13:32:20;;;;;;;6.40;5.88;;;;;;;;;;5006876;28;20209;-68
2023/07/25 13:34:49;;;;;;;7.30;5.80;;;;;;;;;;4992396;28;20259;-68
2023/07/25 13:37:16;;;;;;;7.28;5.75;;;;;;;;;;4992279;28;20212;-67
2023/07/25 13:39:43;;;;;;;6.47;5.88;;;;;;;;;;4996939;28;20215;-67
2023/07/25 13:42:10;;;;;;;6.90;6.10;;;;;;;;;;4992055;28;20208;-67
2023/07/25 13:44:38;;;;;;;6.05;5.47;;;;;;;;;;4994675;28;20201;-67
2023/07/25 13:47:05;;;;;;;6.07;5.38;;;;;;;;;;4995893;28;20233;-67
2023/07/25 13:49:32;;;;;;;6.18;5.63;;;;;;;;;;5000137;28;20232;-67
2023/07/25 13:52:01;;;;;;;6.75;5.15;;;;;;;;;;5000396;28;20320;-67
2023/07/25 13:54:30;;;;;;;5.20;4.70;;;;;;;;;;4998939;28;20201;-68
2023/07/25 13:56:57;;;;;;;7.40;5.38;;;;;;;;;;5004290;28;20236;-68
2023/07/25 13:59:24;;;;;;;4.97;4.50;;;;;;;;;;5001398;28;20213;-68
2023/07/25 14:01:51;;;;;;;5.25;4.75;;;;;;;;;;5012445;28;20197;-67
2023/07/25 14:04:19;;;;;;;6.22;5.22;;;;;;;;;;5006912;28;20229;-68
2023/07/25 14:06:50;;;;;;;6.03;5.53;;;;;;;;;;5003574;28;20332;-67
2023/07/25 14:09:19;;;;;;;6.40;4.50;;;;;;;;;;5009064;28;20201;-68
2023/07/25 14:11:46;;;;;;;4.63;4.10;;;;;;;;;;5002093;28;20347;-67
2023/07/25 14:14:14;;;;;;;3.88;3.58;;;;;;;;;;4999634;28;20304;-68
2023/07/25 14:16:41;;;;;;;3.70;3.33;;;;;;;;;;5003934;28;20279;-68
2023/07/25 14:19:08;;;;;;;3.78;2.97;;;;;;;;;;5003018;28;20200;-68
2023/07/25 14:21:35;;;;;;;3.30;2.85;;;;;;;;;;5003624;28;20208;-68
2023/07/25 14:24:02;;;;;;;4.22;3.20;;;;;;;;;;5000505;28;20198;-68
2023/07/25 14:26:32;;;;;;;4.18;2.97;;;;;;;;;;5002953;28;20233;-68
2023/07/25 14:29:02;;;;;;;5.68;2.88;;;;;;;;;;5010319;28;20205;-68
2023/07/25 14:31:29;;;;;;;2.80;2.50;;;;;;;;;;5004863;28;20304;-68
2023/07/25 14:33:57;;;;;;;3.35;2.75;;;;;;;;;;5004423;28;20204;-68
2023/07/25 14:36:24;;;;;;;3.63;2.63;;;;;;;;;;5003890;28;20232;-69
2023/07/25 14:38:51;;;;;;;3.30;3.00;;;;;;;;;;5002662;28;20193;-69
2023/07/25 14:41:18;;;;;;;3.28;2.90;;;;;;;;;;5008610;28;20204;-69
2023/07/25 14:43:47;;;;;;;3.97;3.05;;;;;;;;;;5002155;28;20301;-69
2023/07/25 14:46:14;;;;;;;10.50;3.42;;;;;;;;;;5000443;28;20241;-69
2023/07/25 14:48:41;;;;;;;3.00;2.80;;;;;;;;;;5009427;28;20204;-68